Time;durP1;ratioP1;P1;durP2;ratioP2;P2;SDS_P1;SDS_P2;PMS_P1;PMS_P2;Temp;Humidity;BMP_temperature;BMP_pressure;BME280_temperature;BME280_humidity;BME280_pressure;Samples;Min_cycle;Max_cycle;Signal;HPM_P1;HPM_P2
2023/05/28 00:01:57;;;;;;;8.38;5.10;;;;;;;6.48;100.00;99028.69;4159661;28;20045;-73
2023/05/28 00:03:58;;;;;;;11.25;5.47;;;;;;;6.48;100.00;99025.13;4164366;28;20389;-73
2023/05/28 00:05:58;;;;;;;9.68;5.53;;;;;;;6.46;100.00;99022.72;4163129;28;20103;-72
2023/05/28 00:08:00;;;;;;;8.65;5.18;;;;;;;6.42;100.00;99020.97;4160857;28;20577;-73
2023/05/28 00:10:01;;;;;;;9.57;5.20;;;;;;;6.39;100.00;99010.66;4168574;28;20124;-73
2023/05/28 00:12:01;;;;;;;8.00;5.30;;;;;;;6.39;100.00;99019.72;4160333;28;20167;-73
2023/05/28 00:14:02;;;;;;;10.75;5.18;;;;;;;6.39;100.00;99014.22;4163528;28;20481;-73
2023/05/28 00:16:02;;;;;;;7.75;5.57;;;;;;;6.36;100.00;99008.56;4170678;28;20025;-73
2023/05/28 00:18:04;;;;;;;7.90;5.03;;;;;;;6.31;100.00;99014.28;4165298;28;20036;-73
2023/05/28 00:20:05;;;;;;;7.65;5.05;;;;;;;6.28;100.00;99010.25;4164868;28;20033;-73
2023/05/28 00:22:05;;;;;;;9.13;5.28;;;;;;;6.27;100.00;99007.84;4161689;28;20060;-73
2023/05/28 00:24:06;;;;;;;7.78;4.70;;;;;;;6.25;100.00;99010.94;4160713;28;20045;-73
2023/05/28 00:26:06;;;;;;;7.82;5.07;;;;;;;6.25;100.00;99008.19;4165299;28;20104;-73
2023/05/28 00:28:07;;;;;;;9.07;5.35;;;;;;;6.26;100.00;99003.50;4160341;28;20037;-73
2023/05/28 00:30:07;;;;;;;11.07;5.40;;;;;;;6.18;100.00;99003.22;4162040;28;20036;-73
2023/05/28 00:32:08;;;;;;;9.80;5.30;;;;;;;6.21;100.00;99001.78;4159629;28;20479;-73
2023/05/28 00:34:08;;;;;;;10.32;5.68;;;;;;;6.17;100.00;98992.56;4163078;28;20252;-73
2023/05/28 00:36:09;;;;;;;7.70;5.05;;;;;;;6.10;100.00;99001.34;4158733;28;20032;-72
2023/05/28 00:38:09;;;;;;;7.68;4.90;;;;;;;6.02;100.00;98998.69;4160834;28;20069;-73
2023/05/28 00:40:10;;;;;;;9.68;5.32;;;;;;;5.95;100.00;98993.72;4164069;28;20044;-73
2023/05/28 00:42:12;;;;;;;7.32;4.85;;;;;;;5.89;100.00;98997.78;4166062;28;20068;-73
2023/05/28 00:44:13;;;;;;;11.60;5.43;;;;;;;5.83;100.00;98994.44;4165503;28;20462;-72
2023/05/28 00:46:18;;;;;;;11.35;6.28;;;;;;;5.78;100.00;98991.88;4162992;28;20803;-73
2023/05/28 00:48:18;;;;;;;12.40;5.35;;;;;;;5.76;100.00;99005.13;4159461;28;20381;-73
2023/05/28 00:50:20;;;;;;;8.82;6.30;;;;;;;5.73;100.00;99007.75;4164548;28;20072;-73
2023/05/28 00:52:21;;;;;;;8.82;4.93;;;;;;;5.71;100.00;99004.50;4158960;28;20029;-73
2023/05/28 00:54:25;;;;;;;6.93;4.85;;;;;;;5.67;100.00;99000.84;4165279;28;20405;-72
2023/05/28 00:56:26;;;;;;;7.78;4.82;;;;;;;5.64;100.00;98992.13;4163695;28;20076;-73
2023/05/28 00:58:26;;;;;;;9.63;5.45;;;;;;;5.63;100.00;98992.47;4164055;28;20060;-72
2023/05/28 01:00:27;;;;;;;9.13;4.95;;;;;;;5.59;100.00;98989.56;4163581;28;20064;-73
2023/05/28 01:02:27;;;;;;;8.90;4.88;;;;;;;5.56;100.00;98984.75;4163232;28;20046;-73
2023/05/28 01:04:31;;;;;;;8.75;5.32;;;;;;;5.56;100.00;98984.75;4161633;28;20496;-73
2023/05/28 01:06:31;;;;;;;9.60;4.65;;;;;;;5.56;100.00;98987.50;4160583;28;20052;-72
2023/05/28 01:08:32;;;;;;;7.60;4.25;;;;;;;5.55;100.00;98985.91;4161698;28;20044;-73
2023/05/28 01:10:34;;;;;;;7.97;4.63;;;;;;;5.55;100.00;98991.38;4161690;28;20081;-73
2023/05/28 01:12:38;;;;;;;8.18;4.40;;;;;;;5.54;100.00;98976.03;4157661;28;20547;-72
2023/05/28 01:14:38;;;;;;;9.05;4.70;;;;;;;5.53;100.00;98984.59;4163393;28;20485;-72
2023/05/28 01:16:39;;;;;;;7.97;4.50;;;;;;;5.53;100.00;98981.84;4164651;28;20048;-73
2023/05/28 01:18:41;;;;;;;8.10;5.25;;;;;;;5.52;100.00;98980.25;4159713;28;20132;-72
2023/05/28 01:20:42;;;;;;;9.60;5.00;;;;;;;5.44;100.00;98970.94;4163390;28;20049;-72
2023/05/28 01:22:50;;;;;;;9.68;5.35;;;;;;;5.41;100.00;98981.78;4157760;28;20049;-73
2023/05/28 01:24:53;;;;;;;7.50;4.78;;;;;;;5.34;100.00;98979.56;4166104;28;20068;-72
2023/05/28 01:26:55;;;;;;;7.68;4.57;;;;;;;5.32;100.00;98974.41;4158665;28;20084;-73
2023/05/28 01:28:56;;;;;;;9.00;5.00;;;;;;;5.28;100.00;98973.44;4160971;28;20041;-73
2023/05/28 01:30:56;;;;;;;6.80;4.50;;;;;;;5.26;100.00;98967.50;4165937;28;20049;-72
2023/05/28 01:32:56;;;;;;;7.95;5.50;;;;;;;5.22;100.00;98963.00;4163181;28;20076;-72
2023/05/28 01:34:57;;;;;;;8.45;4.53;;;;;;;5.19;100.00;98971.88;4165558;28;20440;-72
2023/05/28 01:37:03;;;;;;;8.68;4.30;;;;;;;5.14;100.00;98967.41;4162788;28;20064;-72
2023/05/28 01:39:05;;;;;;;7.13;4.97;;;;;;;5.11;100.00;98959.00;4164626;28;20049;-73
2023/05/28 01:41:07;;;;;;;7.35;4.65;;;;;;;5.08;100.00;98968.72;4164725;28;20044;-72
2023/05/28 01:43:09;;;;;;;7.07;4.68;;;;;;;5.11;100.00;98959.81;4161467;28;20045;-72
2023/05/28 01:45:11;;;;;;;8.73;5.10;;;;;;;5.05;100.00;98958.41;4158407;28;20069;-72
2023/05/28 01:47:13;;;;;;;11.15;5.18;;;;;;;5.05;100.00;98959.22;4158673;28;20084;-72
2023/05/28 01:49:14;;;;;;;8.85;4.75;;;;;;;5.01;100.00;98960.19;4158642;28;20041;-73
2023/05/28 01:51:24;;;;;;;7.28;4.30;;;;;;;4.98;100.00;98964.41;4158366;28;20137;-72
2023/05/28 01:53:24;;;;;;;6.85;5.28;;;;;;;4.94;100.00;98962.63;4160376;28;20048;-72
2023/05/28 01:55:25;;;;;;;9.43;4.82;;;;;;;4.89;100.00;98958.16;4164871;28;20041;-72
2023/05/28 01:57:25;;;;;;;5.82;4.32;;;;;;;4.85;100.00;98959.94;4171297;28;20134;-72
2023/05/28 01:59:25;;;;;;;8.20;4.95;;;;;;;4.83;100.00;98961.41;4158274;28;20127;-73
2023/05/28 02:01:28;;;;;;;7.90;5.18;;;;;;;4.79;100.00;98963.97;4160862;28;20052;-72
2023/05/28 02:03:29;;;;;;;6.85;4.72;;;;;;;4.73;100.00;98960.63;4161102;28;20459;-72
2023/05/28 02:05:29;;;;;;;10.30;5.20;;;;;;;4.71;100.00;98953.84;4158446;28;20037;-72
2023/05/28 02:07:30;;;;;;;8.68;4.60;;;;;;;4.69;100.00;98956.91;4158351;28;20069;-72
2023/05/28 02:09:31;;;;;;;11.50;5.55;;;;;;;4.65;100.00;98950.50;4157721;28;20501;-72
2023/05/28 02:11:31;;;;;;;7.53;5.03;;;;;;;4.62;100.00;98950.31;4159758;28;20045;-72
2023/05/28 02:13:31;;;;;;;7.95;5.18;;;;;;;4.59;100.00;98961.94;4170401;28;20041;-72
2023/05/28 02:15:32;;;;;;;9.27;5.30;;;;;;;4.56;100.00;98963.41;4172976;28;20064;-73
2023/05/28 02:17:32;;;;;;;8.00;4.88;;;;;;;4.53;100.00;98960.50;4159529;28;20152;-72
2023/05/28 02:19:34;;;;;;;6.68;4.70;;;;;;;4.52;100.00;98956.97;4162032;28;20039;-72
2023/05/28 02:21:36;;;;;;;9.63;5.05;;;;;;;4.45;100.00;98957.47;4172490;28;20084;-72
2023/05/28 02:23:40;;;;;;;6.80;4.78;;;;;;;4.42;100.00;98954.59;4165468;28;20518;-72
2023/05/28 02:25:41;;;;;;;6.85;4.18;;;;;;;4.38;100.00;98950.88;4172914;28;20113;-72
2023/05/28 02:27:41;;;;;;;9.75;5.35;;;;;;;4.38;100.00;98957.16;4167168;28;20100;-72
2023/05/28 02:29:43;;;;;;;6.57;4.63;;;;;;;4.35;100.00;98949.59;4173057;28;20121;-72
2023/05/28 02:31:43;;;;;;;9.82;4.97;;;;;;;4.34;100.00;98953.47;4171312;28;20099;-72
2023/05/28 02:33:43;;;;;;;9.88;5.15;;;;;;;4.31;100.00;98947.84;4160353;28;20045;-72
2023/05/28 02:35:44;;;;;;;8.68;5.20;;;;;;;4.27;100.00;98944.13;4158200;28;20080;-72
2023/05/28 02:37:44;;;;;;;10.57;5.75;;;;;;;4.22;100.00;98954.16;4157974;28;20084;-72
2023/05/28 02:39:45;;;;;;;6.38;4.53;;;;;;;4.19;100.00;98949.28;4157070;28;20446;-72
2023/05/28 02:41:45;;;;;;;7.00;4.50;;;;;;;4.17;100.00;98948.03;4158266;28;20038;-72
2023/05/28 02:43:45;;;;;;;7.15;4.18;;;;;;;4.15;100.00;98947.53;4157061;28;20037;-72
2023/05/28 02:45:45;;;;;;;10.95;4.90;;;;;;;4.14;100.00;98941.25;4157838;28;20057;-72
2023/05/28 02:47:46;;;;;;;7.47;4.88;;;;;;;4.22;100.00;98945.13;4166855;28;20049;-72
2023/05/28 02:49:46;;;;;;;6.47;4.40;;;;;;;4.29;100.00;98955.56;4173119;28;20051;-72
2023/05/28 02:51:47;;;;;;;9.18;4.45;;;;;;;4.27;100.00;98953.16;4165995;28;20042;-72
2023/05/28 02:53:47;;;;;;;12.75;4.28;;;;;;;4.26;100.00;98946.06;4170310;28;20655;-72
2023/05/28 02:55:48;;;;;;;9.98;4.90;;;;;;;4.21;100.00;98947.03;4170935;28;20045;-72
2023/05/28 02:57:48;;;;;;;6.38;4.72;;;;;;;4.18;100.00;98941.41;4157712;28;20046;-72
2023/05/28 02:59:49;;;;;;;8.02;4.93;;;;;;;4.19;100.00;98954.78;4157352;28;20080;-72
2023/05/28 03:01:49;;;;;;;9.68;5.13;;;;;;;4.16;100.00;98951.88;4157923;28;20034;-72
2023/05/28 03:03:49;;;;;;;8.73;4.15;;;;;;;4.18;100.00;98952.38;4158293;28;20509;-72
2023/05/28 03:05:50;;;;;;;9.70;4.88;;;;;;;4.15;100.00;98948.34;4160350;28;20073;-72
2023/05/28 03:07:51;;;;;;;6.13;4.55;;;;;;;4.13;100.00;98947.03;4174548;28;20037;-72
2023/05/28 03:09:51;;;;;;;9.57;4.82;;;;;;;4.07;100.00;98946.44;4175536;28;20033;-72
2023/05/28 03:11:51;;;;;;;9.07;4.72;;;;;;;4.00;100.00;98956.25;4166244;28;20132;-72
2023/05/28 03:13:51;;;;;;;9.23;4.10;;;;;;;3.99;100.00;98960.13;4168902;28;20731;-72
2023/05/28 03:15:52;;;;;;;8.38;4.75;;;;;;;4.06;100.00;98964.00;4171056;28;20459;-72
2023/05/28 03:17:53;;;;;;;8.18;4.63;;;;;;;4.15;100.00;98964.78;4172589;28;20045;-72
2023/05/28 03:19:54;;;;;;;9.27;4.80;;;;;;;4.23;100.00;98961.22;4174635;28;20539;-72
2023/05/28 03:21:55;;;;;;;8.65;4.70;;;;;;;4.26;100.00;98961.69;4175702;28;20135;-72
2023/05/28 03:23:55;;;;;;;11.38;5.10;;;;;;;4.23;100.00;98960.44;4162064;28;20397;-72
2023/05/28 03:25:56;;;;;;;10.60;5.18;;;;;;;4.20;100.00;98950.09;4162832;28;20033;-72
2023/05/28 03:27:56;;;;;;;11.65;6.28;;;;;;;4.15;100.00;98966.72;4174267;28;20464;-72
2023/05/28 03:29:56;;;;;;;8.88;5.00;;;;;;;4.22;100.00;98956.88;4173217;28;20054;-72
2023/05/28 03:31:57;;;;;;;8.90;5.50;;;;;;;4.31;100.00;98964.28;4164872;28;20381;-72
2023/05/28 03:33:57;;;;;;;10.32;5.10;;;;;;;4.34;100.00;98955.41;4169047;28;20486;-72
2023/05/28 03:35:57;;;;;;;11.27;6.60;;;;;;;4.32;100.00;98958.47;4160869;28;20124;-72
2023/05/28 03:37:58;;;;;;;12.35;6.80;;;;;;;4.27;100.00;98961.38;4171606;28;20124;-72
2023/05/28 03:39:58;;;;;;;10.68;6.95;;;;;;;4.21;100.00;98957.19;4172026;28;20064;-72
2023/05/28 03:41:58;;;;;;;12.85;6.13;;;;;;;4.14;100.00;98959.63;4160362;28;20103;-72
2023/05/28 03:43:59;;;;;;;11.60;5.88;;;;;;;4.10;100.00;98953.97;4166354;28;20441;-72
2023/05/28 03:45:59;;;;;;;8.73;5.60;;;;;;;4.10;100.00;98951.25;4160287;28;20069;-72
2023/05/28 03:48:01;;;;;;;11.55;6.00;;;;;;;4.06;100.00;98955.78;4160693;28;20084;-72
2023/05/28 03:50:04;;;;;;;14.52;6.82;;;;;;;4.05;100.00;98947.84;4143484;28;20034;-72
2023/05/28 03:52:04;;;;;;;8.63;5.22;;;;;;;4.02;100.00;98951.25;4143669;28;20096;-72
2023/05/28 03:54:05;;;;;;;9.23;5.35;;;;;;;4.09;100.00;98949.63;4154626;28;20025;-72
2023/05/28 03:56:06;;;;;;;10.73;5.15;;;;;;;4.13;100.00;98944.31;4159183;28;20380;-72
2023/05/28 03:58:06;;;;;;;10.07;5.30;;;;;;;4.16;100.00;98935.47;4157279;28;20026;-73
2023/05/28 04:00:08;;;;;;;12.90;5.43;;;;;;;4.21;100.00;98946.22;4149263;28;20072;-73
2023/05/28 04:02:09;;;;;;;9.57;5.03;;;;;;;4.33;100.00;98940.09;4149441;28;20026;-73
2023/05/28 04:04:09;;;;;;;10.65;5.65;;;;;;;4.46;100.00;98939.09;4145670;28;20029;-73
2023/05/28 04:06:10;;;;;;;8.32;5.43;;;;;;;4.58;100.00;98944.72;4145024;28;20057;-72
2023/05/28 04:08:10;;;;;;;12.43;6.15;;;;;;;4.60;100.00;98944.38;4143402;28;20569;-72
2023/05/28 04:10:10;;;;;;;10.40;6.20;;;;;;;4.62;100.00;98944.84;4143782;28;20041;-72
2023/05/28 04:12:12;;;;;;;15.48;5.88;;;;;;;4.69;100.00;98945.16;4148666;28;20033;-73
2023/05/28 04:14:12;;;;;;;11.70;5.85;;;;;;;4.72;100.00;98941.78;4143792;28;20025;-72
2023/05/28 04:16:13;;;;;;;12.18;6.63;;;;;;;4.74;100.00;98953.22;4154697;28;20434;-72
2023/05/28 04:18:13;;;;;;;10.82;6.97;;;;;;;4.72;100.00;98948.06;4158402;28;20030;-73
2023/05/28 04:20:14;;;;;;;10.63;5.60;;;;;;;4.73;100.00;98946.13;4145770;28;20036;-72
2023/05/28 04:22:14;;;;;;;9.77;5.20;;;;;;;4.71;100.00;98949.16;4156225;28;20037;-72
2023/05/28 04:24:15;;;;;;;9.15;6.18;;;;;;;4.72;100.00;98952.75;4143904;28;20057;-72
2023/05/28 04:26:16;;;;;;;9.90;5.53;;;;;;;4.75;100.00;98943.84;4155618;28;20497;-72
2023/05/28 04:28:16;;;;;;;9.98;6.40;;;;;;;4.81;100.00;98945.28;4157172;28;20096;-72
2023/05/28 04:30:16;;;;;;;8.90;5.82;;;;;;;4.87;100.00;98952.19;4158155;28;20045;-72
2023/05/28 04:32:17;;;;;;;11.65;5.88;;;;;;;4.98;100.00;98955.38;4158765;28;20040;-72
2023/05/28 04:34:18;;;;;;;8.60;5.43;;;;;;;5.15;100.00;98949.81;4143318;28;20552;-72
2023/05/28 04:36:19;;;;;;;10.63;6.70;;;;;;;5.27;100.00;98951.81;4155160;28;20305;-72
2023/05/28 04:38:20;;;;;;;9.93;6.18;;;;;;;5.37;100.00;98951.44;4159178;28;20475;-72
2023/05/28 04:40:21;;;;;;;11.25;6.63;;;;;;;5.44;100.00;98950.91;4156054;28;20053;-72
2023/05/28 04:42:21;;;;;;;10.38;6.30;;;;;;;5.52;100.00;98952.81;4151916;28;20128;-72
2023/05/28 04:44:25;;;;;;;13.23;7.68;;;;;;;5.60;100.00;98957.44;4150488;28;20083;-72
2023/05/28 04:46:29;;;;;;;14.02;7.18;;;;;;;5.67;100.00;98956.91;4144711;28;20026;-72
2023/05/28 04:48:31;;;;;;;11.73;7.18;;;;;;;5.75;100.00;98953.31;4145852;28;20507;-72
2023/05/28 04:50:32;;;;;;;10.00;6.78;;;;;;;5.83;100.00;98955.19;4142430;28;20045;-72
2023/05/28 04:52:35;;;;;;;11.30;7.05;;;;;;;5.89;100.00;98960.13;4142469;28;20462;-72
2023/05/28 04:54:35;;;;;;;10.10;6.63;;;;;;;5.97;100.00;98955.75;4143511;28;20049;-72
2023/05/28 04:56:36;;;;;;;9.52;6.68;;;;;;;6.04;100.00;98956.00;4142559;28;20117;-72
2023/05/28 04:58:36;;;;;;;10.48;6.05;;;;;;;6.11;100.00;98955.44;4142950;28;20050;-72
2023/05/28 05:00:36;;;;;;;11.05;7.03;;;;;;;6.20;100.00;98959.72;4143124;28;20104;-72
2023/05/28 05:02:36;;;;;;;11.48;6.78;;;;;;;6.31;100.00;98965.63;4141936;28;20044;-72
2023/05/28 05:04:37;;;;;;;11.07;6.65;;;;;;;6.39;100.00;98962.00;4142397;28;20096;-72
2023/05/28 05:06:37;;;;;;;13.40;6.80;;;;;;;6.51;100.00;98961.22;4152861;28;20378;-72
2023/05/28 05:08:37;;;;;;;9.10;6.25;;;;;;;6.60;100.00;98961.91;4149034;28;20042;-72
2023/05/28 05:10:38;;;;;;;10.07;6.18;;;;;;;6.70;100.00;98963.44;4142807;28;20095;-72
2023/05/28 05:12:38;;;;;;;10.13;5.57;;;;;;;6.80;100.00;98964.97;4141576;28;20096;-72
2023/05/28 05:14:38;;;;;;;13.60;6.55;;;;;;;6.87;100.00;98960.50;4148973;28;20045;-72
2023/05/28 05:16:40;;;;;;;9.13;6.40;;;;;;;6.98;100.00;98967.16;4151595;28;20104;-72
2023/05/28 05:18:40;;;;;;;8.23;6.13;;;;;;;7.09;100.00;98962.00;4149319;28;20042;-72
2023/05/28 05:20:40;;;;;;;8.52;5.78;;;;;;;7.16;100.00;98948.47;4142614;28;20372;-72
2023/05/28 05:22:41;;;;;;;8.90;5.78;;;;;;;7.27;100.00;98955.13;4141780;28;20129;-72
2023/05/28 05:24:41;;;;;;;8.70;5.90;;;;;;;7.38;100.00;98954.69;4149920;28;20393;-72
2023/05/28 05:26:41;;;;;;;11.77;6.18;;;;;;;7.46;100.00;98949.06;4145833;28;20118;-72
2023/05/28 05:28:42;;;;;;;8.52;5.43;;;;;;;7.55;100.00;98951.69;4142113;28;20061;-72
2023/05/28 05:30:43;;;;;;;10.15;5.70;;;;;;;7.60;100.00;98949.47;4141998;28;20052;-72
2023/05/28 05:32:43;;;;;;;8.85;6.65;;;;;;;7.73;100.00;98950.25;4149744;28;20545;-72
2023/05/28 05:34:43;;;;;;;11.52;5.82;;;;;;;7.81;100.00;98952.06;4148579;28;20045;-72
2023/05/28 05:36:44;;;;;;;10.40;6.22;;;;;;;7.91;100.00;98953.53;4143824;28;20310;-72
2023/05/28 05:38:45;;;;;;;6.80;5.18;;;;;;;7.99;100.00;98955.34;4145520;28;20381;-72
2023/05/28 05:40:46;;;;;;;10.18;6.15;;;;;;;8.07;100.00;98959.91;4141398;28;20053;-72
2023/05/28 05:42:46;;;;;;;8.82;5.43;;;;;;;8.15;100.00;98961.72;4147856;28;20406;-72
2023/05/28 05:44:46;;;;;;;10.40;5.65;;;;;;;8.22;100.00;98957.59;4149905;28;20604;-72
2023/05/28 05:46:47;;;;;;;9.35;5.53;;;;;;;8.32;100.00;98962.59;4142353;28;20033;-72
2023/05/28 05:48:47;;;;;;;10.77;5.65;;;;;;;8.40;100.00;98958.91;4154836;28;20041;-72
2023/05/28 05:50:54;;;;;;;12.25;6.05;;;;;;;8.49;100.00;98956.00;4156489;28;20045;-72
2023/05/28 05:52:54;;;;;;;9.38;5.18;;;;;;;8.55;100.00;98957.34;4147115;28;20072;-72
2023/05/28 05:54:55;;;;;;;9.20;4.95;;;;;;;8.64;100.00;98955.22;4142045;28;20034;-72
2023/05/28 05:56:55;;;;;;;8.50;5.10;;;;;;;8.72;100.00;98960.56;4143414;28;20136;-72
2023/05/28 05:58:57;;;;;;;10.30;4.95;;;;;;;8.80;100.00;98953.28;4140595;28;20046;-72
2023/05/28 06:00:58;;;;;;;9.27;5.10;;;;;;;8.89;100.00;98962.19;4142170;28;20049;-72
2023/05/28 06:02:58;;;;;;;7.60;4.75;;;;;;;8.99;100.00;98956.13;4152600;28;20076;-72
2023/05/28 06:04:59;;;;;;;14.57;6.43;;;;;;;9.08;100.00;98955.97;4156911;28;20086;-72
2023/05/28 06:07:03;;;;;;;10.68;5.65;;;;;;;9.18;100.00;98957.38;4111951;28;20053;-72
2023/05/28 06:09:04;;;;;;;9.93;5.97;;;;;;;9.24;100.00;98956.75;4150313;28;20505;-72
2023/05/28 06:11:05;;;;;;;11.23;6.32;;;;;;;9.34;100.00;98954.59;4156631;28;20065;-72
2023/05/28 06:13:05;;;;;;;10.32;5.53;;;;;;;9.41;100.00;98957.53;4152660;28;20112;-72
2023/05/28 06:15:06;;;;;;;8.70;5.20;;;;;;;9.48;100.00;98963.25;4143844;28;20057;-72
2023/05/28 06:17:09;;;;;;;7.70;4.50;;;;;;;9.55;100.00;98966.16;4152397;28;20128;-72
2023/05/28 06:19:09;;;;;;;13.50;5.85;;;;;;;9.61;100.00;98953.69;4155618;28;20130;-72
2023/05/28 06:21:10;;;;;;;9.02;4.82;;;;;;;9.68;100.00;98953.84;4156408;28;20053;-72
2023/05/28 06:23:10;;;;;;;11.13;4.97;;;;;;;9.77;100.00;98959.19;4142793;28;20042;-72
2023/05/28 06:25:11;;;;;;;9.20;5.68;;;;;;;9.87;100.00;98955.84;4156396;28;20041;-73
2023/05/28 06:27:12;;;;;;;8.63;5.18;;;;;;;9.95;100.00;98949.31;4141109;28;20093;-73
2023/05/28 06:29:12;;;;;;;11.73;5.38;;;;;;;10.09;100.00;98944.09;4133636;28;20951;-73
2023/05/28 06:31:12;;;;;;;8.20;5.55;;;;;;;10.19;100.00;98939.94;4135338;28;20403;-72
2023/05/28 06:33:13;;;;;;;9.63;5.20;;;;;;;10.32;100.00;98949.69;4135911;28;20044;-72
2023/05/28 06:35:13;;;;;;;10.80;4.88;;;;;;;10.45;100.00;98949.56;4137618;28;20041;-73
2023/05/28 06:37:14;;;;;;;9.35;4.45;;;;;;;10.53;100.00;98946.56;4139480;28;20510;-72
2023/05/28 06:39:14;;;;;;;9.77;4.40;;;;;;;10.65;100.00;98942.81;4141762;28;20073;-72
2023/05/28 06:41:15;;;;;;;6.97;4.35;;;;;;;10.76;100.00;98945.75;4144386;28;20061;-72
2023/05/28 06:43:15;;;;;;;8.88;4.63;;;;;;;10.87;100.00;98944.00;4148434;28;20046;-72
2023/05/28 06:45:16;;;;;;;9.20;5.68;;;;;;;10.96;100.00;98950.09;4142710;28;20125;-72
2023/05/28 06:47:16;;;;;;;10.60;4.45;;;;;;;11.06;100.00;98952.25;4143519;28;20048;-72
2023/05/28 06:49:16;;;;;;;7.20;4.50;;;;;;;11.13;100.00;98952.38;4141571;28;20049;-73
2023/05/28 06:51:17;;;;;;;9.43;4.50;;;;;;;11.23;100.00;98948.97;4148720;28;20052;-73
2023/05/28 06:53:18;;;;;;;7.85;4.03;;;;;;;11.32;100.00;98951.47;4152963;28;20061;-72
2023/05/28 06:55:18;;;;;;;8.88;4.90;;;;;;;11.39;100.00;98946.06;4149190;28;20053;-73
2023/05/28 06:57:18;;;;;;;10.73;5.53;;;;;;;11.43;100.00;98940.59;4151469;28;20077;-72
2023/05/28 06:59:19;;;;;;;7.55;4.40;;;;;;;11.52;100.00;98947.47;4150230;28;20069;-73
2023/05/28 07:01:19;;;;;;;9.75;5.45;;;;;;;11.65;100.00;98944.47;4150482;28;20069;-73
2023/05/28 07:03:19;;;;;;;5.88;4.05;;;;;;;11.71;100.00;98943.78;4153533;28;20038;-72
2023/05/28 07:05:20;;;;;;;10.85;5.15;;;;;;;11.76;100.00;98946.22;4151320;28;20096;-73
2023/05/28 07:07:20;;;;;;;9.07;4.80;;;;;;;11.86;100.00;98944.81;4149186;28;20033;-73
2023/05/28 07:09:21;;;;;;;8.57;4.32;;;;;;;11.92;100.00;98948.84;4146412;28;20233;-73
2023/05/28 07:11:21;;;;;;;10.48;4.97;;;;;;;12.02;100.00;98941.84;4146006;28;20034;-73
2023/05/28 07:13:22;;;;;;;7.70;4.38;;;;;;;12.15;100.00;98951.50;4146522;28;20471;-73
2023/05/28 07:15:22;;;;;;;7.82;4.40;;;;;;;12.23;100.00;98946.84;4145446;28;20045;-73
2023/05/28 07:17:22;;;;;;;8.15;4.18;;;;;;;12.29;100.00;98946.16;4144909;28;20042;-72
2023/05/28 07:19:23;;;;;;;12.30;4.13;;;;;;;12.37;100.00;98942.28;4145147;28;20137;-73
2023/05/28 07:21:23;;;;;;;6.93;4.55;;;;;;;12.52;100.00;98945.22;4147803;28;20545;-73
2023/05/28 07:23:23;;;;;;;8.18;4.30;;;;;;;12.59;100.00;98946.09;4146930;28;20042;-73
2023/05/28 07:25:24;;;;;;;10.02;4.20;;;;;;;12.71;100.00;98945.03;4143612;28;20402;-73
2023/05/28 07:27:24;;;;;;;8.40;4.03;;;;;;;12.81;100.00;98938.78;4143970;28;20484;-73
2023/05/28 07:29:26;;;;;;;8.45;3.92;;;;;;;12.89;99.70;98939.66;4140990;28;20045;-73
2023/05/28 07:31:28;;;;;;;11.05;4.38;;;;;;;13.00;99.61;98946.13;4145716;28;20089;-73
2023/05/28 07:33:28;;;;;;;7.60;4.35;;;;;;;13.09;98.91;98941.03;4147302;28;20119;-73
2023/05/28 07:35:28;;;;;;;9.20;4.18;;;;;;;13.24;100.00;98936.44;4146354;28;20042;-73
2023/05/28 07:37:29;;;;;;;9.82;4.57;;;;;;;13.33;96.48;98939.69;4148036;28;20049;-72
2023/05/28 07:39:29;;;;;;;7.57;4.47;;;;;;;13.44;97.12;98943.31;4144992;28;20125;-72
2023/05/28 07:41:30;;;;;;;7.85;4.28;;;;;;;13.51;95.18;98944.56;4144960;28;20042;-72
2023/05/28 07:43:30;;;;;;;8.80;4.28;;;;;;;13.54;95.89;98933.47;4147549;28;20087;-72
2023/05/28 07:45:30;;;;;;;15.98;5.18;;;;;;;13.66;98.50;98938.72;4145551;28;20068;-72
2023/05/28 07:47:30;;;;;;;7.22;4.20;;;;;;;13.73;96.74;98937.94;4146729;28;20129;-72
2023/05/28 07:49:31;;;;;;;11.10;4.90;;;;;;;13.82;95.81;98940.38;4156625;28;20450;-72
2023/05/28 07:51:32;;;;;;;7.93;4.78;;;;;;;13.88;95.02;98941.63;4153719;28;20049;-72
2023/05/28 07:53:32;;;;;;;7.57;4.18;;;;;;;13.97;96.26;98942.84;4143131;28;20129;-72
2023/05/28 07:55:33;;;;;;;6.55;4.60;;;;;;;14.06;94.99;98934.94;4148188;28;20045;-72
2023/05/28 07:57:33;;;;;;;8.48;4.50;;;;;;;14.21;96.80;98954.50;4158614;28;20488;-72
2023/05/28 07:59:33;;;;;;;15.30;5.05;;;;;;;14.30;95.34;98949.38;4157673;28;20045;-72
2023/05/28 08:01:34;;;;;;;7.03;4.35;;;;;;;14.42;93.31;98942.66;4150843;28;20087;-72
2023/05/28 08:03:34;;;;;;;9.82;4.75;;;;;;;14.52;95.90;98942.72;4142924;28;20504;-72
2023/05/28 08:05:35;;;;;;;8.82;4.40;;;;;;;14.64;93.49;98947.13;4143812;28;20125;-72
2023/05/28 08:07:35;;;;;;;9.20;5.13;;;;;;;14.73;93.70;98935.59;4143993;28;20064;-72
2023/05/28 08:09:36;;;;;;;8.23;3.97;;;;;;;14.80;94.12;98938.41;4156218;28;20132;-72
2023/05/28 08:11:36;;;;;;;8.85;4.80;;;;;;;14.89;94.22;98938.81;4151530;28;20048;-72
2023/05/28 08:13:36;;;;;;;11.65;4.75;;;;;;;14.98;93.06;98936.47;4140846;28;20073;-72
2023/05/28 08:15:37;;;;;;;8.05;4.50;;;;;;;15.08;90.46;98938.47;4144132;28;20136;-72
2023/05/28 08:17:37;;;;;;;8.07;3.85;;;;;;;15.21;91.48;98940.84;4143561;28;20421;-72
2023/05/28 08:19:38;;;;;;;10.40;5.18;;;;;;;15.32;93.61;98936.88;4143988;28;20053;-72
2023/05/28 08:21:39;;;;;;;9.23;5.05;;;;;;;15.41;94.56;98930.91;4146808;28;20064;-72
2023/05/28 08:23:40;;;;;;;8.25;4.40;;;;;;;15.50;92.96;98922.13;4144654;28;20045;-72
2023/05/28 08:25:40;;;;;;;10.75;4.10;;;;;;;15.64;89.28;98931.31;4143296;28;20057;-72
2023/05/28 08:27:40;;;;;;;10.27;4.32;;;;;;;15.64;87.44;98925.72;4143029;28;20049;-72
2023/05/28 08:29:41;;;;;;;7.32;4.50;;;;;;;15.65;87.15;98918.16;4148349;28;20453;-72
2023/05/28 08:31:41;;;;;;;20.02;4.75;;;;;;;15.65;89.72;98916.16;4156817;28;20133;-72
2023/05/28 08:33:41;;;;;;;8.75;4.65;;;;;;;15.71;89.06;98914.53;4149277;28;20128;-72
2023/05/28 08:35:42;;;;;;;8.70;4.03;;;;;;;15.77;87.08;98919.72;4147215;28;20136;-72
2023/05/28 08:37:42;;;;;;;7.78;4.20;;;;;;;15.80;88.13;98908.53;4157663;28;20106;-72
2023/05/28 08:39:43;;;;;;;7.22;3.90;;;;;;;15.91;87.70;98914.91;4158956;28;20073;-72
2023/05/28 08:41:44;;;;;;;7.93;3.50;;;;;;;16.07;87.04;98908.06;4149701;28;20042;-72
2023/05/28 08:43:45;;;;;;;7.97;3.88;;;;;;;16.20;86.32;98914.78;4142604;28;20398;-73
2023/05/28 08:45:46;;;;;;;9.43;5.15;;;;;;;16.27;86.14;98915.56;4142823;28;20083;-72
2023/05/28 08:47:48;;;;;;;13.48;4.28;;;;;;;16.34;84.89;98916.72;4155852;28;20046;-72
2023/05/28 08:49:53;;;;;;;5.57;3.42;;;;;;;16.35;82.83;98910.72;4157427;28;20056;-72
2023/05/28 08:51:55;;;;;;;5.15;3.47;;;;;;;16.49;82.97;98913.47;4149527;28;20549;-72
2023/05/28 08:53:55;;;;;;;6.15;3.72;;;;;;;16.54;82.40;98907.44;4144820;28;20044;-72
2023/05/28 08:55:57;;;;;;;9.45;4.22;;;;;;;16.52;81.65;98901.47;4142870;28;20042;-73
2023/05/28 08:57:57;;;;;;;5.57;3.60;;;;;;;16.58;82.71;98910.22;4150769;28;20481;-72
2023/05/28 09:00:00;;;;;;;7.13;3.63;;;;;;;16.67;83.10;98904.97;4153578;28;20053;-72
2023/05/28 09:02:02;;;;;;;7.38;3.67;;;;;;;16.77;79.26;98906.13;4141860;28;20092;-72
2023/05/28 09:04:03;;;;;;;5.82;3.22;;;;;;;16.78;79.35;98902.13;4148684;28;20053;-72
2023/05/28 09:06:03;;;;;;;7.93;3.88;;;;;;;16.79;81.54;98893.34;4143270;28;20022;-73
2023/05/28 09:08:09;;;;;;;7.63;3.80;;;;;;;16.82;79.06;98895.34;4146337;28;20026;-72
2023/05/28 09:10:13;;;;;;;7.53;4.40;;;;;;;16.94;77.89;98896.03;4146457;28;20062;-72
2023/05/28 09:12:19;;;;;;;6.22;3.90;;;;;;;17.05;80.60;98894.78;4150895;28;20022;-72
2023/05/28 09:14:20;;;;;;;5.68;3.40;;;;;;;17.18;75.55;98894.25;4156490;28;20029;-72
2023/05/28 09:16:22;;;;;;;10.85;3.63;;;;;;;17.27;77.51;98900.16;4146492;28;21617;-72
2023/05/28 09:18:23;;;;;;;5.57;3.20;;;;;;;17.32;75.23;98897.72;4143130;28;20370;-72
2023/05/28 09:20:24;;;;;;;9.13;3.85;;;;;;;17.35;77.95;98894.09;4144757;28;20129;-72
2023/05/28 09:22:24;;;;;;;7.53;3.55;;;;;;;17.45;75.10;98900.00;4141781;28;20046;-72
2023/05/28 09:24:28;;;;;;;5.88;3.28;;;;;;;17.45;72.00;98895.19;4142486;28;20070;-72
2023/05/28 09:26:32;;;;;;;6.53;3.55;;;;;;;17.47;69.57;98892.81;4151212;28;20038;-72